<?xml version="1.0" encoding="UTF-8" standalone="no" ?>
<gpx xmlns="http://www.topografix.com/GPX/1/1" xmlns:xsi="http://www.w3.org/2001/XMLSchema-instance" xsi:schemaLocation="http://www.topografix.com/GPX/1/1 http://www.topografix.com/GPX/1/1/gpx.xsd" version="1.1" creator="VisuGPX - https://www.visugpx.com">
  <metadata>
    <name>La_familiale_AICC22</name>
  </metadata>
  <trk>
    <name><![CDATA[14744793-La familiale ]]></name>
    <trkseg>
      <trkpt lat="47.31945" lon="3.6559">
        <ele>176</ele>
        <time>2022-06-03T20:42:14Z</time>
      </trkpt>
      <trkpt lat="47.31831" lon="3.65558">
        <ele>173</ele>
        <time>2022-06-03T20:42:35Z</time>
      </trkpt>
      <trkpt lat="47.31781" lon="3.65542">
        <ele>173</ele>
        <time>2022-06-03T20:42:44Z</time>
      </trkpt>
      <trkpt lat="47.31731" lon="3.65519">
        <ele>174</ele>
        <time>2022-06-03T20:42:53Z</time>
      </trkpt>
      <trkpt lat="47.31723" lon="3.65514">
        <ele>174</ele>
        <time>2022-06-03T20:42:55Z</time>
      </trkpt>
      <trkpt lat="47.31714" lon="3.65498">
        <ele>174</ele>
        <time>2022-06-03T20:42:57Z</time>
      </trkpt>
      <trkpt lat="47.31691" lon="3.65448">
        <ele>175</ele>
        <time>2022-06-03T20:43:04Z</time>
      </trkpt>
      <trkpt lat="47.3166" lon="3.65393">
        <ele>177</ele>
        <time>2022-06-03T20:43:13Z</time>
      </trkpt>
      <trkpt lat="47.31649" lon="3.65381">
        <ele>177</ele>
        <time>2022-06-03T20:43:15Z</time>
      </trkpt>
      <trkpt lat="47.3164" lon="3.65374">
        <ele>177</ele>
        <time>2022-06-03T20:43:17Z</time>
      </trkpt>
      <trkpt lat="47.31628" lon="3.65371">
        <ele>177</ele>
        <time>2022-06-03T20:43:19Z</time>
      </trkpt>
      <trkpt lat="47.31569" lon="3.65378">
        <ele>178</ele>
        <time>2022-06-03T20:43:30Z</time>
      </trkpt>
      <trkpt lat="47.31557" lon="3.65385">
        <ele>178</ele>
        <time>2022-06-03T20:43:32Z</time>
      </trkpt>
      <trkpt lat="47.31544" lon="3.65387">
        <ele>178</ele>
        <time>2022-06-03T20:43:35Z</time>
      </trkpt>
      <trkpt lat="47.31502" lon="3.65382">
        <ele>178</ele>
        <time>2022-06-03T20:43:42Z</time>
      </trkpt>
      <trkpt lat="47.31464" lon="3.65382">
        <ele>179</ele>
        <time>2022-06-03T20:43:49Z</time>
      </trkpt>
      <trkpt lat="47.31455" lon="3.65386">
        <ele>179</ele>
        <time>2022-06-03T20:43:51Z</time>
      </trkpt>
      <trkpt lat="47.31451" lon="3.65391">
        <ele>179</ele>
        <time>2022-06-03T20:43:51Z</time>
      </trkpt>
      <trkpt lat="47.31447" lon="3.65408">
        <ele>179</ele>
        <time>2022-06-03T20:43:54Z</time>
      </trkpt>
      <trkpt lat="47.31449" lon="3.65578">
        <ele>176</ele>
        <time>2022-06-03T20:44:14Z</time>
      </trkpt>
      <trkpt lat="47.31445" lon="3.65578">
        <ele>176</ele>
        <time>2022-06-03T20:44:15Z</time>
      </trkpt>
      <trkpt lat="47.31429" lon="3.6559">
        <ele>176</ele>
        <time>2022-06-03T20:44:18Z</time>
      </trkpt>
      <trkpt lat="47.31412" lon="3.65599">
        <ele>176</ele>
        <time>2022-06-03T20:44:21Z</time>
      </trkpt>
      <trkpt lat="47.31357" lon="3.65624">
        <ele>176</ele>
        <time>2022-06-03T20:44:32Z</time>
      </trkpt>
      <trkpt lat="47.31342" lon="3.65634">
        <ele>175</ele>
        <time>2022-06-03T20:44:34Z</time>
      </trkpt>
      <trkpt lat="47.31307" lon="3.65668">
        <ele>175</ele>
        <time>2022-06-03T20:44:42Z</time>
      </trkpt>
      <trkpt lat="47.31264" lon="3.65716">
        <ele>175</ele>
        <time>2022-06-03T20:44:51Z</time>
      </trkpt>
      <trkpt lat="47.31232" lon="3.65758">
        <ele>174</ele>
        <time>2022-06-03T20:44:59Z</time>
      </trkpt>
      <trkpt lat="47.31196" lon="3.65797">
        <ele>175</ele>
        <time>2022-06-03T20:45:07Z</time>
      </trkpt>
      <trkpt lat="47.31098" lon="3.65917">
        <ele>176</ele>
        <time>2022-06-03T20:45:30Z</time>
      </trkpt>
      <trkpt lat="47.31086" lon="3.65924">
        <ele>176</ele>
        <time>2022-06-03T20:45:32Z</time>
      </trkpt>
      <trkpt lat="47.31059" lon="3.65948">
        <ele>175</ele>
        <time>2022-06-03T20:45:38Z</time>
      </trkpt>
      <trkpt lat="47.31006" lon="3.66009">
        <ele>175</ele>
        <time>2022-06-03T20:45:50Z</time>
      </trkpt>
      <trkpt lat="47.30973" lon="3.66042">
        <ele>176</ele>
        <time>2022-06-03T20:45:57Z</time>
      </trkpt>
      <trkpt lat="47.30905" lon="3.66092">
        <ele>178</ele>
        <time>2022-06-03T20:46:10Z</time>
      </trkpt>
      <trkpt lat="47.30886" lon="3.66099">
        <ele>178</ele>
        <time>2022-06-03T20:46:14Z</time>
      </trkpt>
      <trkpt lat="47.30797" lon="3.6612">
        <ele>181</ele>
        <time>2022-06-03T20:46:30Z</time>
      </trkpt>
      <trkpt lat="47.30759" lon="3.66124">
        <ele>183</ele>
        <time>2022-06-03T20:46:37Z</time>
      </trkpt>
      <trkpt lat="47.30211" lon="3.6608">
        <ele>188</ele>
        <time>2022-06-03T20:48:14Z</time>
      </trkpt>
      <trkpt lat="47.29933" lon="3.66073">
        <ele>191</ele>
        <time>2022-06-03T20:49:04Z</time>
      </trkpt>
      <trkpt lat="47.29835" lon="3.66074">
        <ele>191</ele>
        <time>2022-06-03T20:49:21Z</time>
      </trkpt>
      <trkpt lat="47.29763" lon="3.66071">
        <ele>192</ele>
        <time>2022-06-03T20:49:34Z</time>
      </trkpt>
      <trkpt lat="47.29748" lon="3.66066">
        <ele>192</ele>
        <time>2022-06-03T20:49:37Z</time>
      </trkpt>
      <trkpt lat="47.29734" lon="3.66053">
        <ele>193</ele>
        <time>2022-06-03T20:49:40Z</time>
      </trkpt>
      <trkpt lat="47.29727" lon="3.66044">
        <ele>193</ele>
        <time>2022-06-03T20:49:41Z</time>
      </trkpt>
      <trkpt lat="47.29715" lon="3.66036">
        <ele>194</ele>
        <time>2022-06-03T20:49:44Z</time>
      </trkpt>
      <trkpt lat="47.29666" lon="3.66034">
        <ele>194</ele>
        <time>2022-06-03T20:49:52Z</time>
      </trkpt>
      <trkpt lat="47.29378" lon="3.65912">
        <ele>193</ele>
        <time>2022-06-03T20:50:46Z</time>
      </trkpt>
      <trkpt lat="47.29067" lon="3.6577">
        <ele>193</ele>
        <time>2022-06-03T20:51:44Z</time>
      </trkpt>
      <trkpt lat="47.29037" lon="3.6576">
        <ele>193</ele>
        <time>2022-06-03T20:51:49Z</time>
      </trkpt>
      <trkpt lat="47.28986" lon="3.65753">
        <ele>191</ele>
        <time>2022-06-03T20:51:58Z</time>
      </trkpt>
      <trkpt lat="47.28874" lon="3.65743">
        <ele>188</ele>
        <time>2022-06-03T20:52:18Z</time>
      </trkpt>
      <trkpt lat="47.28852" lon="3.65739">
        <ele>187</ele>
        <time>2022-06-03T20:52:22Z</time>
      </trkpt>
      <trkpt lat="47.28817" lon="3.65725">
        <ele>187</ele>
        <time>2022-06-03T20:52:28Z</time>
      </trkpt>
      <trkpt lat="47.28766" lon="3.65692">
        <ele>186</ele>
        <time>2022-06-03T20:52:38Z</time>
      </trkpt>
      <trkpt lat="47.28683" lon="3.65614">
        <ele>187</ele>
        <time>2022-06-03T20:52:56Z</time>
      </trkpt>
      <trkpt lat="47.28653" lon="3.65591">
        <ele>186</ele>
        <time>2022-06-03T20:53:02Z</time>
      </trkpt>
      <trkpt lat="47.28549" lon="3.6552">
        <ele>189</ele>
        <time>2022-06-03T20:53:22Z</time>
      </trkpt>
      <trkpt lat="47.28393" lon="3.65408">
        <ele>195</ele>
        <time>2022-06-03T20:53:53Z</time>
      </trkpt>
      <trkpt lat="47.28379" lon="3.65394">
        <ele>196</ele>
        <time>2022-06-03T20:53:56Z</time>
      </trkpt>
      <trkpt lat="47.28347" lon="3.65358">
        <ele>197</ele>
        <time>2022-06-03T20:54:03Z</time>
      </trkpt>
      <trkpt lat="47.28323" lon="3.65326">
        <ele>199</ele>
        <time>2022-06-03T20:54:09Z</time>
      </trkpt>
      <trkpt lat="47.28289" lon="3.65272">
        <ele>200</ele>
        <time>2022-06-03T20:54:18Z</time>
      </trkpt>
      <trkpt lat="47.28274" lon="3.65264">
        <ele>199</ele>
        <time>2022-06-03T20:54:21Z</time>
      </trkpt>
      <trkpt lat="47.28264" lon="3.65262">
        <ele>198</ele>
        <time>2022-06-03T20:54:23Z</time>
      </trkpt>
      <trkpt lat="47.28238" lon="3.65267">
        <ele>195</ele>
        <time>2022-06-03T20:54:27Z</time>
      </trkpt>
      <trkpt lat="47.28231" lon="3.65275">
        <ele>194</ele>
        <time>2022-06-03T20:54:29Z</time>
      </trkpt>
      <trkpt lat="47.28214" lon="3.65286">
        <ele>193</ele>
        <time>2022-06-03T20:54:32Z</time>
      </trkpt>
      <trkpt lat="47.28174" lon="3.65304">
        <ele>191</ele>
        <time>2022-06-03T20:54:40Z</time>
      </trkpt>
      <trkpt lat="47.28148" lon="3.65303">
        <ele>191</ele>
        <time>2022-06-03T20:54:44Z</time>
      </trkpt>
      <trkpt lat="47.28101" lon="3.65293">
        <ele>192</ele>
        <time>2022-06-03T20:54:53Z</time>
      </trkpt>
      <trkpt lat="47.28039" lon="3.65292">
        <ele>191</ele>
        <time>2022-06-03T20:55:04Z</time>
      </trkpt>
      <trkpt lat="47.2801" lon="3.65295">
        <ele>191</ele>
        <time>2022-06-03T20:55:09Z</time>
      </trkpt>
      <trkpt lat="47.2798" lon="3.65301">
        <ele>191</ele>
        <time>2022-06-03T20:55:14Z</time>
      </trkpt>
      <trkpt lat="47.27964" lon="3.65296">
        <ele>192</ele>
        <time>2022-06-03T20:55:17Z</time>
      </trkpt>
      <trkpt lat="47.27941" lon="3.65281">
        <ele>193</ele>
        <time>2022-06-03T20:55:22Z</time>
      </trkpt>
      <trkpt lat="47.279" lon="3.65249">
        <ele>194</ele>
        <time>2022-06-03T20:55:30Z</time>
      </trkpt>
      <trkpt lat="47.27841" lon="3.6521">
        <ele>194</ele>
        <time>2022-06-03T20:55:41Z</time>
      </trkpt>
      <trkpt lat="47.2783" lon="3.65198">
        <ele>195</ele>
        <time>2022-06-03T20:55:44Z</time>
      </trkpt>
      <trkpt lat="47.27799" lon="3.65259">
        <ele>193</ele>
        <time>2022-06-03T20:55:53Z</time>
      </trkpt>
      <trkpt lat="47.27796" lon="3.65254">
        <ele>193</ele>
        <time>2022-06-03T20:55:54Z</time>
      </trkpt>
      <trkpt lat="47.27729" lon="3.65223">
        <ele>192</ele>
        <time>2022-06-03T20:56:06Z</time>
      </trkpt>
      <trkpt lat="47.27695" lon="3.65217">
        <ele>190</ele>
        <time>2022-06-03T20:56:12Z</time>
      </trkpt>
      <trkpt lat="47.27671" lon="3.6522">
        <ele>189</ele>
        <time>2022-06-03T20:56:17Z</time>
      </trkpt>
      <trkpt lat="47.27643" lon="3.65228">
        <ele>187</ele>
        <time>2022-06-03T20:56:22Z</time>
      </trkpt>
      <trkpt lat="47.27635" lon="3.65232">
        <ele>186</ele>
        <time>2022-06-03T20:56:23Z</time>
      </trkpt>
      <trkpt lat="47.27626" lon="3.65242">
        <ele>185</ele>
        <time>2022-06-03T20:56:25Z</time>
      </trkpt>
      <trkpt lat="47.27619" lon="3.65252">
        <ele>185</ele>
        <time>2022-06-03T20:56:27Z</time>
      </trkpt>
      <trkpt lat="47.27613" lon="3.65254">
        <ele>184</ele>
        <time>2022-06-03T20:56:28Z</time>
      </trkpt>
      <trkpt lat="47.27603" lon="3.65243">
        <ele>184</ele>
        <time>2022-06-03T20:56:30Z</time>
      </trkpt>
      <trkpt lat="47.27567" lon="3.65161">
        <ele>185</ele>
        <time>2022-06-03T20:56:42Z</time>
      </trkpt>
      <trkpt lat="47.27556" lon="3.65146">
        <ele>185</ele>
        <time>2022-06-03T20:56:45Z</time>
      </trkpt>
      <trkpt lat="47.27544" lon="3.65135">
        <ele>186</ele>
        <time>2022-06-03T20:56:47Z</time>
      </trkpt>
      <trkpt lat="47.2751" lon="3.65113">
        <ele>186</ele>
        <time>2022-06-03T20:56:54Z</time>
      </trkpt>
      <trkpt lat="47.2735" lon="3.65">
        <ele>186</ele>
        <time>2022-06-03T20:57:26Z</time>
      </trkpt>
      <trkpt lat="47.27318" lon="3.64984">
        <ele>187</ele>
        <time>2022-06-03T20:57:32Z</time>
      </trkpt>
      <trkpt lat="47.27272" lon="3.64968">
        <ele>186</ele>
        <time>2022-06-03T20:57:40Z</time>
      </trkpt>
      <trkpt lat="47.27252" lon="3.64959">
        <ele>186</ele>
        <time>2022-06-03T20:57:44Z</time>
      </trkpt>
      <trkpt lat="47.27164" lon="3.64899">
        <ele>186</ele>
        <time>2022-06-03T20:58:01Z</time>
      </trkpt>
      <trkpt lat="47.27132" lon="3.6487">
        <ele>186</ele>
        <time>2022-06-03T20:58:08Z</time>
      </trkpt>
      <trkpt lat="47.2707" lon="3.64802">
        <ele>187</ele>
        <time>2022-06-03T20:58:21Z</time>
      </trkpt>
      <trkpt lat="47.26431" lon="3.64345">
        <ele>190</ele>
        <time>2022-06-03T21:00:28Z</time>
      </trkpt>
      <trkpt lat="47.26365" lon="3.643">
        <ele>192</ele>
        <time>2022-06-03T21:00:41Z</time>
      </trkpt>
      <trkpt lat="47.26329" lon="3.6428">
        <ele>191</ele>
        <time>2022-06-03T21:00:48Z</time>
      </trkpt>
      <trkpt lat="47.26292" lon="3.64265">
        <ele>190</ele>
        <time>2022-06-03T21:00:54Z</time>
      </trkpt>
      <trkpt lat="47.26249" lon="3.64257">
        <ele>189</ele>
        <time>2022-06-03T21:01:02Z</time>
      </trkpt>
      <trkpt lat="47.26218" lon="3.64259">
        <ele>188</ele>
        <time>2022-06-03T21:01:08Z</time>
      </trkpt>
      <trkpt lat="47.26172" lon="3.6427">
        <ele>188</ele>
        <time>2022-06-03T21:01:16Z</time>
      </trkpt>
      <trkpt lat="47.26135" lon="3.64289">
        <ele>187</ele>
        <time>2022-06-03T21:01:23Z</time>
      </trkpt>
      <trkpt lat="47.26102" lon="3.64313">
        <ele>186</ele>
        <time>2022-06-03T21:01:29Z</time>
      </trkpt>
      <trkpt lat="47.26045" lon="3.64376">
        <ele>187</ele>
        <time>2022-06-03T21:01:42Z</time>
      </trkpt>
      <trkpt lat="47.25896" lon="3.64617">
        <ele>189</ele>
        <time>2022-06-03T21:02:21Z</time>
      </trkpt>
      <trkpt lat="47.25891" lon="3.64639">
        <ele>189</ele>
        <time>2022-06-03T21:02:24Z</time>
      </trkpt>
      <trkpt lat="47.25906" lon="3.64744">
        <ele>191</ele>
        <time>2022-06-03T21:02:37Z</time>
      </trkpt>
      <trkpt lat="47.25909" lon="3.6476">
        <ele>191</ele>
        <time>2022-06-03T21:02:39Z</time>
      </trkpt>
      <trkpt lat="47.25879" lon="3.6481">
        <ele>189</ele>
        <time>2022-06-03T21:02:47Z</time>
      </trkpt>
      <trkpt lat="47.25867" lon="3.64822">
        <ele>188</ele>
        <time>2022-06-03T21:02:50Z</time>
      </trkpt>
      <trkpt lat="47.25855" lon="3.6482">
        <ele>188</ele>
        <time>2022-06-03T21:02:52Z</time>
      </trkpt>
      <trkpt lat="47.25817" lon="3.64775">
        <ele>188</ele>
        <time>2022-06-03T21:03:01Z</time>
      </trkpt>
      <trkpt lat="47.2581" lon="3.64772">
        <ele>188</ele>
        <time>2022-06-03T21:03:02Z</time>
      </trkpt>
      <trkpt lat="47.25805" lon="3.64773">
        <ele>189</ele>
        <time>2022-06-03T21:03:03Z</time>
      </trkpt>
      <trkpt lat="47.25747" lon="3.64864">
        <ele>190</ele>
        <time>2022-06-03T21:03:18Z</time>
      </trkpt>
      <trkpt lat="47.25732" lon="3.64882">
        <ele>191</ele>
        <time>2022-06-03T21:03:21Z</time>
      </trkpt>
      <trkpt lat="47.25632" lon="3.6504">
        <ele>187</ele>
        <time>2022-06-03T21:03:47Z</time>
      </trkpt>
      <trkpt lat="47.25565" lon="3.65128">
        <ele>188</ele>
        <time>2022-06-03T21:04:03Z</time>
      </trkpt>
      <trkpt lat="47.25518" lon="3.65179">
        <ele>188</ele>
        <time>2022-06-03T21:04:14Z</time>
      </trkpt>
      <trkpt lat="47.25452" lon="3.65236">
        <ele>188</ele>
        <time>2022-06-03T21:04:27Z</time>
      </trkpt>
      <trkpt lat="47.25417" lon="3.65262">
        <ele>188</ele>
        <time>2022-06-03T21:04:34Z</time>
      </trkpt>
      <trkpt lat="47.2531" lon="3.65327">
        <ele>191</ele>
        <time>2022-06-03T21:04:55Z</time>
      </trkpt>
      <trkpt lat="47.25089" lon="3.6547">
        <ele>195</ele>
        <time>2022-06-03T21:05:38Z</time>
      </trkpt>
      <trkpt lat="47.24118" lon="3.66086">
        <ele>196</ele>
        <time>2022-06-03T21:08:46Z</time>
      </trkpt>
      <trkpt lat="47.23806" lon="3.66289">
        <ele>201</ele>
        <time>2022-06-03T21:09:47Z</time>
      </trkpt>
      <trkpt lat="47.23776" lon="3.66313">
        <ele>201</ele>
        <time>2022-06-03T21:09:53Z</time>
      </trkpt>
      <trkpt lat="47.23701" lon="3.66357">
        <ele>202</ele>
        <time>2022-06-03T21:10:07Z</time>
      </trkpt>
      <trkpt lat="47.23559" lon="3.66447">
        <ele>201</ele>
        <time>2022-06-03T21:10:35Z</time>
      </trkpt>
      <trkpt lat="47.23379" lon="3.66566">
        <ele>203</ele>
        <time>2022-06-03T21:11:10Z</time>
      </trkpt>
      <trkpt lat="47.23364" lon="3.66576">
        <ele>203</ele>
        <time>2022-06-03T21:11:13Z</time>
      </trkpt>
      <trkpt lat="47.23356" lon="3.66576">
        <ele>204</ele>
        <time>2022-06-03T21:11:14Z</time>
      </trkpt>
      <trkpt lat="47.23353" lon="3.66571">
        <ele>204</ele>
        <time>2022-06-03T21:11:15Z</time>
      </trkpt>
      <trkpt lat="47.23344" lon="3.66537">
        <ele>205</ele>
        <time>2022-06-03T21:11:19Z</time>
      </trkpt>
      <trkpt lat="47.2334" lon="3.66526">
        <ele>205</ele>
        <time>2022-06-03T21:11:21Z</time>
      </trkpt>
      <trkpt lat="47.23204" lon="3.66621">
        <ele>207</ele>
        <time>2022-06-03T21:11:48Z</time>
      </trkpt>
      <trkpt lat="47.23062" lon="3.66714">
        <ele>206</ele>
        <time>2022-06-03T21:12:15Z</time>
      </trkpt>
      <trkpt lat="47.22872" lon="3.66832">
        <ele>202</ele>
        <time>2022-06-03T21:12:52Z</time>
      </trkpt>
      <trkpt lat="47.22819" lon="3.66831">
        <ele>204</ele>
        <time>2022-06-03T21:13:01Z</time>
      </trkpt>
      <trkpt lat="47.22788" lon="3.66843">
        <ele>205</ele>
        <time>2022-06-03T21:13:07Z</time>
      </trkpt>
      <trkpt lat="47.22469" lon="3.67043">
        <ele>211</ele>
        <time>2022-06-03T21:14:09Z</time>
      </trkpt>
      <trkpt lat="47.22435" lon="3.67066">
        <ele>212</ele>
        <time>2022-06-03T21:14:15Z</time>
      </trkpt>
      <trkpt lat="47.22404" lon="3.67095">
        <ele>212</ele>
        <time>2022-06-03T21:14:22Z</time>
      </trkpt>
      <trkpt lat="47.22374" lon="3.67132">
        <ele>210</ele>
        <time>2022-06-03T21:14:29Z</time>
      </trkpt>
      <trkpt lat="47.22351" lon="3.67154">
        <ele>207</ele>
        <time>2022-06-03T21:14:34Z</time>
      </trkpt>
      <trkpt lat="47.22332" lon="3.67166">
        <ele>204</ele>
        <time>2022-06-03T21:14:38Z</time>
      </trkpt>
      <trkpt lat="47.22311" lon="3.6719">
        <ele>206</ele>
        <time>2022-06-03T21:14:42Z</time>
      </trkpt>
      <trkpt lat="47.2228" lon="3.67201">
        <ele>209</ele>
        <time>2022-06-03T21:14:48Z</time>
      </trkpt>
      <trkpt lat="47.22255" lon="3.67214">
        <ele>209</ele>
        <time>2022-06-03T21:14:53Z</time>
      </trkpt>
      <trkpt lat="47.22167" lon="3.67294">
        <ele>207</ele>
        <time>2022-06-03T21:15:11Z</time>
      </trkpt>
      <trkpt lat="47.22143" lon="3.6731">
        <ele>209</ele>
        <time>2022-06-03T21:15:16Z</time>
      </trkpt>
      <trkpt lat="47.22102" lon="3.67333">
        <ele>209</ele>
        <time>2022-06-03T21:15:24Z</time>
      </trkpt>
      <trkpt lat="47.22033" lon="3.67394">
        <ele>211</ele>
        <time>2022-06-03T21:15:38Z</time>
      </trkpt>
      <trkpt lat="47.2201" lon="3.67415">
        <ele>210</ele>
        <time>2022-06-03T21:15:43Z</time>
      </trkpt>
      <trkpt lat="47.21959" lon="3.67489">
        <ele>209</ele>
        <time>2022-06-03T21:15:55Z</time>
      </trkpt>
      <trkpt lat="47.21904" lon="3.67529">
        <ele>210</ele>
        <time>2022-06-03T21:16:06Z</time>
      </trkpt>
      <trkpt lat="47.21833" lon="3.67593">
        <ele>209</ele>
        <time>2022-06-03T21:16:21Z</time>
      </trkpt>
      <trkpt lat="47.218" lon="3.67627">
        <ele>214</ele>
        <time>2022-06-03T21:16:28Z</time>
      </trkpt>
      <trkpt lat="47.21729" lon="3.67769">
        <ele>209</ele>
        <time>2022-06-03T21:16:50Z</time>
      </trkpt>
      <trkpt lat="47.21685" lon="3.67834">
        <ele>206</ele>
        <time>2022-06-03T21:17:01Z</time>
      </trkpt>
      <trkpt lat="47.21656" lon="3.67856">
        <ele>206</ele>
        <time>2022-06-03T21:17:07Z</time>
      </trkpt>
      <trkpt lat="47.21608" lon="3.67871">
        <ele>206</ele>
        <time>2022-06-03T21:17:15Z</time>
      </trkpt>
      <trkpt lat="47.21522" lon="3.67892">
        <ele>206</ele>
        <time>2022-06-03T21:17:31Z</time>
      </trkpt>
      <trkpt lat="47.21459" lon="3.67895">
        <ele>208</ele>
        <time>2022-06-03T21:17:42Z</time>
      </trkpt>
      <trkpt lat="47.21397" lon="3.67893">
        <ele>210</ele>
        <time>2022-06-03T21:17:53Z</time>
      </trkpt>
      <trkpt lat="47.21335" lon="3.67902">
        <ele>211</ele>
        <time>2022-06-03T21:18:04Z</time>
      </trkpt>
      <trkpt lat="47.21284" lon="3.67941">
        <ele>211</ele>
        <time>2022-06-03T21:18:14Z</time>
      </trkpt>
      <trkpt lat="47.21225" lon="3.67974">
        <ele>214</ele>
        <time>2022-06-03T21:18:26Z</time>
      </trkpt>
      <trkpt lat="47.21156" lon="3.68027">
        <ele>217</ele>
        <time>2022-06-03T21:18:39Z</time>
      </trkpt>
      <trkpt lat="47.21045" lon="3.68118">
        <ele>212</ele>
        <time>2022-06-03T21:19:02Z</time>
      </trkpt>
      <trkpt lat="47.20882" lon="3.68245">
        <ele>210</ele>
        <time>2022-06-03T21:19:35Z</time>
      </trkpt>
      <trkpt lat="47.20833" lon="3.68278">
        <ele>212</ele>
        <time>2022-06-03T21:19:44Z</time>
      </trkpt>
      <trkpt lat="47.20815" lon="3.68282">
        <ele>212</ele>
        <time>2022-06-03T21:19:48Z</time>
      </trkpt>
      <trkpt lat="47.20795" lon="3.68282">
        <ele>212</ele>
        <time>2022-06-03T21:19:51Z</time>
      </trkpt>
      <trkpt lat="47.20676" lon="3.68248">
        <ele>214</ele>
        <time>2022-06-03T21:20:13Z</time>
      </trkpt>
      <trkpt lat="47.20625" lon="3.68247">
        <ele>215</ele>
        <time>2022-06-03T21:20:22Z</time>
      </trkpt>
      <trkpt lat="47.20572" lon="3.68263">
        <ele>216</ele>
        <time>2022-06-03T21:20:31Z</time>
      </trkpt>
      <trkpt lat="47.20314" lon="3.6846">
        <ele>214</ele>
        <time>2022-06-03T21:21:23Z</time>
      </trkpt>
      <trkpt lat="47.20085" lon="3.68643">
        <ele>215</ele>
        <time>2022-06-03T21:22:10Z</time>
      </trkpt>
      <trkpt lat="47.20056" lon="3.68682">
        <ele>215</ele>
        <time>2022-06-03T21:22:17Z</time>
      </trkpt>
      <trkpt lat="47.20043" lon="3.68709">
        <ele>214</ele>
        <time>2022-06-03T21:22:21Z</time>
      </trkpt>
      <trkpt lat="47.20007" lon="3.68757">
        <ele>215</ele>
        <time>2022-06-03T21:22:29Z</time>
      </trkpt>
      <trkpt lat="47.19863" lon="3.68967">
        <ele>217</ele>
        <time>2022-06-03T21:23:05Z</time>
      </trkpt>
      <trkpt lat="47.19723" lon="3.69159">
        <ele>221</ele>
        <time>2022-06-03T21:23:39Z</time>
      </trkpt>
      <trkpt lat="47.19693" lon="3.69195">
        <ele>222</ele>
        <time>2022-06-03T21:23:46Z</time>
      </trkpt>
      <trkpt lat="47.1966" lon="3.69213">
        <ele>222</ele>
        <time>2022-06-03T21:23:52Z</time>
      </trkpt>
      <trkpt lat="47.19644" lon="3.69226">
        <ele>222</ele>
        <time>2022-06-03T21:23:56Z</time>
      </trkpt>
      <trkpt lat="47.19631" lon="3.69241">
        <ele>221</ele>
        <time>2022-06-03T21:23:59Z</time>
      </trkpt>
      <trkpt lat="47.19559" lon="3.69345">
        <ele>220</ele>
        <time>2022-06-03T21:24:17Z</time>
      </trkpt>
      <trkpt lat="47.19544" lon="3.69373">
        <ele>220</ele>
        <time>2022-06-03T21:24:21Z</time>
      </trkpt>
      <trkpt lat="47.19534" lon="3.69405">
        <ele>220</ele>
        <time>2022-06-03T21:24:25Z</time>
      </trkpt>
      <trkpt lat="47.19527" lon="3.69437">
        <ele>219</ele>
        <time>2022-06-03T21:24:29Z</time>
      </trkpt>
      <trkpt lat="47.19516" lon="3.69465">
        <ele>220</ele>
        <time>2022-06-03T21:24:33Z</time>
      </trkpt>
      <trkpt lat="47.19498" lon="3.69493">
        <ele>220</ele>
        <time>2022-06-03T21:24:38Z</time>
      </trkpt>
      <trkpt lat="47.19478" lon="3.69512">
        <ele>220</ele>
        <time>2022-06-03T21:24:42Z</time>
      </trkpt>
      <trkpt lat="47.19458" lon="3.69523">
        <ele>220</ele>
        <time>2022-06-03T21:24:46Z</time>
      </trkpt>
      <trkpt lat="47.19435" lon="3.69523">
        <ele>220</ele>
        <time>2022-06-03T21:24:50Z</time>
      </trkpt>
      <trkpt lat="47.19399" lon="3.69502">
        <ele>221</ele>
        <time>2022-06-03T21:24:57Z</time>
      </trkpt>
      <trkpt lat="47.19367" lon="3.69464">
        <ele>220</ele>
        <time>2022-06-03T21:25:04Z</time>
      </trkpt>
      <trkpt lat="47.19324" lon="3.69397">
        <ele>221</ele>
        <time>2022-06-03T21:25:15Z</time>
      </trkpt>
      <trkpt lat="47.1932" lon="3.69404">
        <ele>221</ele>
        <time>2022-06-03T21:25:16Z</time>
      </trkpt>
      <trkpt lat="47.19313" lon="3.69415">
        <ele>221</ele>
        <time>2022-06-03T21:25:18Z</time>
      </trkpt>
      <trkpt lat="47.19307" lon="3.69429">
        <ele>220</ele>
        <time>2022-06-03T21:25:20Z</time>
      </trkpt>
      <trkpt lat="47.19305" lon="3.69436">
        <ele>220</ele>
        <time>2022-06-03T21:25:21Z</time>
      </trkpt>
      <trkpt lat="47.19302" lon="3.69467">
        <ele>219</ele>
        <time>2022-06-03T21:25:25Z</time>
      </trkpt>
      <trkpt lat="47.19303" lon="3.69498">
        <ele>218</ele>
        <time>2022-06-03T21:25:29Z</time>
      </trkpt>
      <trkpt lat="47.19294" lon="3.69563">
        <ele>218</ele>
        <time>2022-06-03T21:25:37Z</time>
      </trkpt>
      <trkpt lat="47.19291" lon="3.69579">
        <ele>218</ele>
        <time>2022-06-03T21:25:39Z</time>
      </trkpt>
      <trkpt lat="47.19246" lon="3.69854">
        <ele>222</ele>
        <time>2022-06-03T21:26:13Z</time>
      </trkpt>
      <trkpt lat="47.19245" lon="3.69882">
        <ele>223</ele>
        <time>2022-06-03T21:26:16Z</time>
      </trkpt>
      <trkpt lat="47.19247" lon="3.69895">
        <ele>223</ele>
        <time>2022-06-03T21:26:18Z</time>
      </trkpt>
      <trkpt lat="47.19251" lon="3.69908">
        <ele>223</ele>
        <time>2022-06-03T21:26:20Z</time>
      </trkpt>
      <trkpt lat="47.19264" lon="3.69932">
        <ele>223</ele>
        <time>2022-06-03T21:26:23Z</time>
      </trkpt>
      <trkpt lat="47.19278" lon="3.69949">
        <ele>223</ele>
        <time>2022-06-03T21:26:27Z</time>
      </trkpt>
      <trkpt lat="47.19298" lon="3.69962">
        <ele>222</ele>
        <time>2022-06-03T21:26:30Z</time>
      </trkpt>
      <trkpt lat="47.19325" lon="3.69989">
        <ele>221</ele>
        <time>2022-06-03T21:26:36Z</time>
      </trkpt>
      <trkpt lat="47.19333" lon="3.69997">
        <ele>220</ele>
        <time>2022-06-03T21:26:38Z</time>
      </trkpt>
      <trkpt lat="47.19348" lon="3.70018">
        <ele>221</ele>
        <time>2022-06-03T21:26:42Z</time>
      </trkpt>
      <trkpt lat="47.1938" lon="3.70073">
        <ele>222</ele>
        <time>2022-06-03T21:26:50Z</time>
      </trkpt>
      <trkpt lat="47.1943" lon="3.70117">
        <ele>226</ele>
        <time>2022-06-03T21:27:01Z</time>
      </trkpt>
      <trkpt lat="47.19476" lon="3.7018">
        <ele>231</ele>
        <time>2022-06-03T21:27:12Z</time>
      </trkpt>
      <trkpt lat="47.19518" lon="3.7022">
        <ele>234</ele>
        <time>2022-06-03T21:27:21Z</time>
      </trkpt>
      <trkpt lat="47.19536" lon="3.70234">
        <ele>235</ele>
        <time>2022-06-03T21:27:24Z</time>
      </trkpt>
      <trkpt lat="47.19571" lon="3.70251">
        <ele>236</ele>
        <time>2022-06-03T21:27:31Z</time>
      </trkpt>
      <trkpt lat="47.19637" lon="3.70266">
        <ele>239</ele>
        <time>2022-06-03T21:27:43Z</time>
      </trkpt>
      <trkpt lat="47.19648" lon="3.70263">
        <ele>239</ele>
        <time>2022-06-03T21:27:45Z</time>
      </trkpt>
      <trkpt lat="47.19692" lon="3.70237">
        <ele>239</ele>
        <time>2022-06-03T21:27:53Z</time>
      </trkpt>
      <trkpt lat="47.19703" lon="3.70236">
        <ele>239</ele>
        <time>2022-06-03T21:27:55Z</time>
      </trkpt>
      <trkpt lat="47.19712" lon="3.70241">
        <ele>240</ele>
        <time>2022-06-03T21:27:57Z</time>
      </trkpt>
      <trkpt lat="47.1972" lon="3.70251">
        <ele>240</ele>
        <time>2022-06-03T21:27:59Z</time>
      </trkpt>
      <trkpt lat="47.19843" lon="3.70511">
        <ele>245</ele>
        <time>2022-06-03T21:28:37Z</time>
      </trkpt>
      <trkpt lat="47.19861" lon="3.70553">
        <ele>244</ele>
        <time>2022-06-03T21:28:43Z</time>
      </trkpt>
      <trkpt lat="47.19906" lon="3.70593">
        <ele>242</ele>
        <time>2022-06-03T21:28:53Z</time>
      </trkpt>
      <trkpt lat="47.20009" lon="3.70672">
        <ele>235</ele>
        <time>2022-06-03T21:29:13Z</time>
      </trkpt>
      <trkpt lat="47.20095" lon="3.7076">
        <ele>223</ele>
        <time>2022-06-03T21:29:32Z</time>
      </trkpt>
      <trkpt lat="47.20124" lon="3.70807">
        <ele>218</ele>
        <time>2022-06-03T21:29:40Z</time>
      </trkpt>
      <trkpt lat="47.20149" lon="3.70839">
        <ele>216</ele>
        <time>2022-06-03T21:29:45Z</time>
      </trkpt>
      <trkpt lat="47.20181" lon="3.70869">
        <ele>214</ele>
        <time>2022-06-03T21:29:52Z</time>
      </trkpt>
      <trkpt lat="47.20196" lon="3.7089">
        <ele>214</ele>
        <time>2022-06-03T21:29:56Z</time>
      </trkpt>
      <trkpt lat="47.20198" lon="3.70895">
        <ele>214</ele>
        <time>2022-06-03T21:29:57Z</time>
      </trkpt>
      <trkpt lat="47.20198" lon="3.70914">
        <ele>214</ele>
        <time>2022-06-03T21:29:59Z</time>
      </trkpt>
      <trkpt lat="47.20196" lon="3.70925">
        <ele>214</ele>
        <time>2022-06-03T21:30:00Z</time>
      </trkpt>
      <trkpt lat="47.2017" lon="3.70968">
        <ele>213</ele>
        <time>2022-06-03T21:30:07Z</time>
      </trkpt>
      <trkpt lat="47.20151" lon="3.71006">
        <ele>213</ele>
        <time>2022-06-03T21:30:13Z</time>
      </trkpt>
      <trkpt lat="47.20104" lon="3.71129">
        <ele>215</ele>
        <time>2022-06-03T21:30:30Z</time>
      </trkpt>
      <trkpt lat="47.20091" lon="3.71138">
        <ele>215</ele>
        <time>2022-06-03T21:30:33Z</time>
      </trkpt>
      <trkpt lat="47.20082" lon="3.7114">
        <ele>215</ele>
        <time>2022-06-03T21:30:34Z</time>
      </trkpt>
      <trkpt lat="47.20068" lon="3.71137">
        <ele>215</ele>
        <time>2022-06-03T21:30:37Z</time>
      </trkpt>
      <trkpt lat="47.20065" lon="3.7115">
        <ele>215</ele>
        <time>2022-06-03T21:30:38Z</time>
      </trkpt>
      <trkpt lat="47.20057" lon="3.71169">
        <ele>216</ele>
        <time>2022-06-03T21:30:41Z</time>
      </trkpt>
      <trkpt lat="47.20041" lon="3.71191">
        <ele>215</ele>
        <time>2022-06-03T21:30:45Z</time>
      </trkpt>
      <trkpt lat="47.20038" lon="3.71198">
        <ele>215</ele>
        <time>2022-06-03T21:30:46Z</time>
      </trkpt>
      <trkpt lat="47.20028" lon="3.71244">
        <ele>214</ele>
        <time>2022-06-03T21:30:52Z</time>
      </trkpt>
      <trkpt lat="47.20021" lon="3.71291">
        <ele>215</ele>
        <time>2022-06-03T21:30:58Z</time>
      </trkpt>
      <trkpt lat="47.20028" lon="3.713">
        <ele>215</ele>
        <time>2022-06-03T21:30:59Z</time>
      </trkpt>
      <trkpt lat="47.20057" lon="3.71324">
        <ele>215</ele>
        <time>2022-06-03T21:31:05Z</time>
      </trkpt>
      <trkpt lat="47.20075" lon="3.71334">
        <ele>214</ele>
        <time>2022-06-03T21:31:09Z</time>
      </trkpt>
      <trkpt lat="47.20096" lon="3.71347">
        <ele>213</ele>
        <time>2022-06-03T21:31:13Z</time>
      </trkpt>
      <trkpt lat="47.20106" lon="3.71355">
        <ele>213</ele>
        <time>2022-06-03T21:31:15Z</time>
      </trkpt>
      <trkpt lat="47.20115" lon="3.71368">
        <ele>213</ele>
        <time>2022-06-03T21:31:17Z</time>
      </trkpt>
      <trkpt lat="47.20118" lon="3.71376">
        <ele>213</ele>
        <time>2022-06-03T21:31:18Z</time>
      </trkpt>
      <trkpt lat="47.20158" lon="3.71481">
        <ele>213</ele>
        <time>2022-06-03T21:31:33Z</time>
      </trkpt>
      <trkpt lat="47.20204" lon="3.71614">
        <ele>215</ele>
        <time>2022-06-03T21:31:51Z</time>
      </trkpt>
      <trkpt lat="47.20279" lon="3.71813">
        <ele>218</ele>
        <time>2022-06-03T21:32:18Z</time>
      </trkpt>
      <trkpt lat="47.20292" lon="3.7186">
        <ele>220</ele>
        <time>2022-06-03T21:32:24Z</time>
      </trkpt>
      <trkpt lat="47.20295" lon="3.71901">
        <ele>223</ele>
        <time>2022-06-03T21:32:29Z</time>
      </trkpt>
      <trkpt lat="47.2028" lon="3.71951">
        <ele>225</ele>
        <time>2022-06-03T21:32:36Z</time>
      </trkpt>
      <trkpt lat="47.20298" lon="3.71932">
        <ele>225</ele>
        <time>2022-06-03T21:32:40Z</time>
      </trkpt>
      <trkpt lat="47.20322" lon="3.71923">
        <ele>225</ele>
        <time>2022-06-03T21:32:44Z</time>
      </trkpt>
      <trkpt lat="47.20378" lon="3.71936">
        <ele>227</ele>
        <time>2022-06-03T21:32:54Z</time>
      </trkpt>
      <trkpt lat="47.20456" lon="3.71932">
        <ele>228</ele>
        <time>2022-06-03T21:33:08Z</time>
      </trkpt>
      <trkpt lat="47.20509" lon="3.71927">
        <ele>229</ele>
        <time>2022-06-03T21:33:18Z</time>
      </trkpt>
      <trkpt lat="47.20541" lon="3.71913">
        <ele>230</ele>
        <time>2022-06-03T21:33:24Z</time>
      </trkpt>
      <trkpt lat="47.20571" lon="3.71885">
        <ele>230</ele>
        <time>2022-06-03T21:33:30Z</time>
      </trkpt>
      <trkpt lat="47.20638" lon="3.71789">
        <ele>228</ele>
        <time>2022-06-03T21:33:46Z</time>
      </trkpt>
      <trkpt lat="47.20702" lon="3.71709">
        <ele>228</ele>
        <time>2022-06-03T21:34:01Z</time>
      </trkpt>
      <trkpt lat="47.20739" lon="3.71669">
        <ele>230</ele>
        <time>2022-06-03T21:34:10Z</time>
      </trkpt>
      <trkpt lat="47.20789" lon="3.71671">
        <ele>231</ele>
        <time>2022-06-03T21:34:18Z</time>
      </trkpt>
      <trkpt lat="47.20822" lon="3.71681">
        <ele>233</ele>
        <time>2022-06-03T21:34:24Z</time>
      </trkpt>
      <trkpt lat="47.20837" lon="3.71692">
        <ele>233</ele>
        <time>2022-06-03T21:34:27Z</time>
      </trkpt>
      <trkpt lat="47.20892" lon="3.71705">
        <ele>233</ele>
        <time>2022-06-03T21:34:37Z</time>
      </trkpt>
      <trkpt lat="47.21004" lon="3.71692">
        <ele>230</ele>
        <time>2022-06-03T21:34:57Z</time>
      </trkpt>
      <trkpt lat="47.21037" lon="3.71674">
        <ele>228</ele>
        <time>2022-06-03T21:35:04Z</time>
      </trkpt>
      <trkpt lat="47.21088" lon="3.71634">
        <ele>227</ele>
        <time>2022-06-03T21:35:14Z</time>
      </trkpt>
      <trkpt lat="47.21252" lon="3.7155">
        <ele>238</ele>
        <time>2022-06-03T21:35:45Z</time>
      </trkpt>
      <trkpt lat="47.21352" lon="3.71459">
        <ele>234</ele>
        <time>2022-06-03T21:36:06Z</time>
      </trkpt>
      <trkpt lat="47.21452" lon="3.71382">
        <ele>233</ele>
        <time>2022-06-03T21:36:26Z</time>
      </trkpt>
      <trkpt lat="47.21478" lon="3.7135">
        <ele>232</ele>
        <time>2022-06-03T21:36:32Z</time>
      </trkpt>
      <trkpt lat="47.21513" lon="3.71294">
        <ele>232</ele>
        <time>2022-06-03T21:36:41Z</time>
      </trkpt>
      <trkpt lat="47.21581" lon="3.71213">
        <ele>233</ele>
        <time>2022-06-03T21:36:57Z</time>
      </trkpt>
      <trkpt lat="47.21659" lon="3.71073">
        <ele>236</ele>
        <time>2022-06-03T21:37:18Z</time>
      </trkpt>
      <trkpt lat="47.21706" lon="3.70957">
        <ele>233</ele>
        <time>2022-06-03T21:37:35Z</time>
      </trkpt>
      <trkpt lat="47.21733" lon="3.709">
        <ele>231</ele>
        <time>2022-06-03T21:37:43Z</time>
      </trkpt>
      <trkpt lat="47.21749" lon="3.70879">
        <ele>230</ele>
        <time>2022-06-03T21:37:47Z</time>
      </trkpt>
      <trkpt lat="47.21831" lon="3.70786">
        <ele>227</ele>
        <time>2022-06-03T21:38:05Z</time>
      </trkpt>
      <trkpt lat="47.21902" lon="3.70696">
        <ele>227</ele>
        <time>2022-06-03T21:38:22Z</time>
      </trkpt>
      <trkpt lat="47.22034" lon="3.71047">
        <ele>234</ele>
        <time>2022-06-03T21:39:11Z</time>
      </trkpt>
      <trkpt lat="47.22281" lon="3.71645">
        <ele>245</ele>
        <time>2022-06-03T21:40:35Z</time>
      </trkpt>
      <trkpt lat="47.22321" lon="3.71711">
        <ele>250</ele>
        <time>2022-06-03T21:40:46Z</time>
      </trkpt>
      <trkpt lat="47.22378" lon="3.71824">
        <ele>256</ele>
        <time>2022-06-03T21:41:03Z</time>
      </trkpt>
      <trkpt lat="47.22481" lon="3.72062">
        <ele>265</ele>
        <time>2022-06-03T21:41:37Z</time>
      </trkpt>
      <trkpt lat="47.22622" lon="3.724">
        <ele>249</ele>
        <time>2022-06-03T21:42:25Z</time>
      </trkpt>
      <trkpt lat="47.22738" lon="3.72655">
        <ele>234</ele>
        <time>2022-06-03T21:43:02Z</time>
      </trkpt>
      <trkpt lat="47.22886" lon="3.72551">
        <ele>230</ele>
        <time>2022-06-03T21:43:31Z</time>
      </trkpt>
      <trkpt lat="47.22907" lon="3.72531">
        <ele>230</ele>
        <time>2022-06-03T21:43:36Z</time>
      </trkpt>
      <trkpt lat="47.22924" lon="3.72508">
        <ele>229</ele>
        <time>2022-06-03T21:43:40Z</time>
      </trkpt>
      <trkpt lat="47.23069" lon="3.72291">
        <ele>223</ele>
        <time>2022-06-03T21:44:17Z</time>
      </trkpt>
      <trkpt lat="47.23203" lon="3.72158">
        <ele>219</ele>
        <time>2022-06-03T21:44:45Z</time>
      </trkpt>
      <trkpt lat="47.23227" lon="3.72118">
        <ele>221</ele>
        <time>2022-06-03T21:44:52Z</time>
      </trkpt>
      <trkpt lat="47.23329" lon="3.7193">
        <ele>221</ele>
        <time>2022-06-03T21:45:21Z</time>
      </trkpt>
      <trkpt lat="47.23478" lon="3.71646">
        <ele>216</ele>
        <time>2022-06-03T21:46:04Z</time>
      </trkpt>
      <trkpt lat="47.23585" lon="3.71449">
        <ele>211</ele>
        <time>2022-06-03T21:46:35Z</time>
      </trkpt>
      <trkpt lat="47.23647" lon="3.71314">
        <ele>208</ele>
        <time>2022-06-03T21:46:54Z</time>
      </trkpt>
      <trkpt lat="47.23759" lon="3.7108">
        <ele>203</ele>
        <time>2022-06-03T21:47:29Z</time>
      </trkpt>
      <trkpt lat="47.23795" lon="3.70986">
        <ele>202</ele>
        <time>2022-06-03T21:47:42Z</time>
      </trkpt>
      <trkpt lat="47.24013" lon="3.70475">
        <ele>207</ele>
        <time>2022-06-03T21:48:55Z</time>
      </trkpt>
      <trkpt lat="47.24061" lon="3.70361">
        <ele>204</ele>
        <time>2022-06-03T21:49:11Z</time>
      </trkpt>
      <trkpt lat="47.24109" lon="3.70249">
        <ele>205</ele>
        <time>2022-06-03T21:49:27Z</time>
      </trkpt>
      <trkpt lat="47.24153" lon="3.70155">
        <ele>207</ele>
        <time>2022-06-03T21:49:41Z</time>
      </trkpt>
      <trkpt lat="47.24193" lon="3.70087">
        <ele>208</ele>
        <time>2022-06-03T21:49:52Z</time>
      </trkpt>
      <trkpt lat="47.24222" lon="3.70043">
        <ele>208</ele>
        <time>2022-06-03T21:49:59Z</time>
      </trkpt>
      <trkpt lat="47.24256" lon="3.69997">
        <ele>207</ele>
        <time>2022-06-03T21:50:07Z</time>
      </trkpt>
      <trkpt lat="47.24368" lon="3.69881">
        <ele>208</ele>
        <time>2022-06-03T21:50:32Z</time>
      </trkpt>
      <trkpt lat="47.24396" lon="3.69843">
        <ele>210</ele>
        <time>2022-06-03T21:50:38Z</time>
      </trkpt>
      <trkpt lat="47.24415" lon="3.69795">
        <ele>211</ele>
        <time>2022-06-03T21:50:45Z</time>
      </trkpt>
      <trkpt lat="47.24417" lon="3.69742">
        <ele>212</ele>
        <time>2022-06-03T21:50:52Z</time>
      </trkpt>
      <trkpt lat="47.24418" lon="3.69646">
        <ele>211</ele>
        <time>2022-06-03T21:51:03Z</time>
      </trkpt>
      <trkpt lat="47.24421" lon="3.6961">
        <ele>212</ele>
        <time>2022-06-03T21:51:08Z</time>
      </trkpt>
      <trkpt lat="47.2443" lon="3.69577">
        <ele>213</ele>
        <time>2022-06-03T21:51:12Z</time>
      </trkpt>
      <trkpt lat="47.24446" lon="3.69549">
        <ele>215</ele>
        <time>2022-06-03T21:51:16Z</time>
      </trkpt>
      <trkpt lat="47.24525" lon="3.69446">
        <ele>219</ele>
        <time>2022-06-03T21:51:35Z</time>
      </trkpt>
      <trkpt lat="47.24566" lon="3.69403">
        <ele>217</ele>
        <time>2022-06-03T21:51:44Z</time>
      </trkpt>
      <trkpt lat="47.24628" lon="3.69355">
        <ele>213</ele>
        <time>2022-06-03T21:51:56Z</time>
      </trkpt>
      <trkpt lat="47.24666" lon="3.6932">
        <ele>210</ele>
        <time>2022-06-03T21:52:04Z</time>
      </trkpt>
      <trkpt lat="47.24752" lon="3.69221">
        <ele>208</ele>
        <time>2022-06-03T21:52:24Z</time>
      </trkpt>
      <trkpt lat="47.24764" lon="3.69213">
        <ele>208</ele>
        <time>2022-06-03T21:52:26Z</time>
      </trkpt>
      <trkpt lat="47.24826" lon="3.69207">
        <ele>208</ele>
        <time>2022-06-03T21:52:37Z</time>
      </trkpt>
      <trkpt lat="47.24848" lon="3.69196">
        <ele>209</ele>
        <time>2022-06-03T21:52:41Z</time>
      </trkpt>
      <trkpt lat="47.24944" lon="3.69112">
        <ele>211</ele>
        <time>2022-06-03T21:53:01Z</time>
      </trkpt>
      <trkpt lat="47.2501" lon="3.69064">
        <ele>208</ele>
        <time>2022-06-03T21:53:14Z</time>
      </trkpt>
      <trkpt lat="47.25148" lon="3.68914">
        <ele>202</ele>
        <time>2022-06-03T21:53:45Z</time>
      </trkpt>
      <trkpt lat="47.25266" lon="3.68809">
        <ele>201</ele>
        <time>2022-06-03T21:54:09Z</time>
      </trkpt>
      <trkpt lat="47.25356" lon="3.68743">
        <ele>199</ele>
        <time>2022-06-03T21:54:27Z</time>
      </trkpt>
      <trkpt lat="47.25399" lon="3.68703">
        <ele>198</ele>
        <time>2022-06-03T21:54:36Z</time>
      </trkpt>
      <trkpt lat="47.25423" lon="3.68685">
        <ele>198</ele>
        <time>2022-06-03T21:54:41Z</time>
      </trkpt>
      <trkpt lat="47.25521" lon="3.68629">
        <ele>196</ele>
        <time>2022-06-03T21:55:00Z</time>
      </trkpt>
      <trkpt lat="47.25574" lon="3.68592">
        <ele>196</ele>
        <time>2022-06-03T21:55:10Z</time>
      </trkpt>
      <trkpt lat="47.25599" lon="3.68565">
        <ele>197</ele>
        <time>2022-06-03T21:55:16Z</time>
      </trkpt>
      <trkpt lat="47.25633" lon="3.68522">
        <ele>198</ele>
        <time>2022-06-03T21:55:24Z</time>
      </trkpt>
      <trkpt lat="47.25736" lon="3.68436">
        <ele>199</ele>
        <time>2022-06-03T21:55:45Z</time>
      </trkpt>
      <trkpt lat="47.25738" lon="3.68425">
        <ele>199</ele>
        <time>2022-06-03T21:55:46Z</time>
      </trkpt>
      <trkpt lat="47.25754" lon="3.68419">
        <ele>199</ele>
        <time>2022-06-03T21:55:49Z</time>
      </trkpt>
      <trkpt lat="47.25817" lon="3.68359">
        <ele>198</ele>
        <time>2022-06-03T21:56:02Z</time>
      </trkpt>
      <trkpt lat="47.25826" lon="3.68346">
        <ele>198</ele>
        <time>2022-06-03T21:56:05Z</time>
      </trkpt>
      <trkpt lat="47.25831" lon="3.68336">
        <ele>199</ele>
        <time>2022-06-03T21:56:06Z</time>
      </trkpt>
      <trkpt lat="47.25835" lon="3.6831">
        <ele>199</ele>
        <time>2022-06-03T21:56:09Z</time>
      </trkpt>
      <trkpt lat="47.2584" lon="3.68286">
        <ele>199</ele>
        <time>2022-06-03T21:56:12Z</time>
      </trkpt>
      <trkpt lat="47.25854" lon="3.68251">
        <ele>199</ele>
        <time>2022-06-03T21:56:17Z</time>
      </trkpt>
      <trkpt lat="47.25858" lon="3.68243">
        <ele>199</ele>
        <time>2022-06-03T21:56:19Z</time>
      </trkpt>
      <trkpt lat="47.2587" lon="3.68233">
        <ele>199</ele>
        <time>2022-06-03T21:56:21Z</time>
      </trkpt>
      <trkpt lat="47.25971" lon="3.68162">
        <ele>197</ele>
        <time>2022-06-03T21:56:41Z</time>
      </trkpt>
      <trkpt lat="47.26026" lon="3.68133">
        <ele>196</ele>
        <time>2022-06-03T21:56:51Z</time>
      </trkpt>
      <trkpt lat="47.26046" lon="3.68126">
        <ele>196</ele>
        <time>2022-06-03T21:56:55Z</time>
      </trkpt>
      <trkpt lat="47.2615" lon="3.681">
        <ele>199</ele>
        <time>2022-06-03T21:57:14Z</time>
      </trkpt>
      <trkpt lat="47.26164" lon="3.68095">
        <ele>199</ele>
        <time>2022-06-03T21:57:16Z</time>
      </trkpt>
      <trkpt lat="47.26169" lon="3.68091">
        <ele>199</ele>
        <time>2022-06-03T21:57:17Z</time>
      </trkpt>
      <trkpt lat="47.26194" lon="3.68041">
        <ele>198</ele>
        <time>2022-06-03T21:57:25Z</time>
      </trkpt>
      <trkpt lat="47.26232" lon="3.67937">
        <ele>196</ele>
        <time>2022-06-03T21:57:39Z</time>
      </trkpt>
      <trkpt lat="47.26369" lon="3.67572">
        <ele>208</ele>
        <time>2022-06-03T21:58:29Z</time>
      </trkpt>
      <trkpt lat="47.2638" lon="3.67549">
        <ele>209</ele>
        <time>2022-06-03T21:58:33Z</time>
      </trkpt>
      <trkpt lat="47.26393" lon="3.67531">
        <ele>210</ele>
        <time>2022-06-03T21:58:36Z</time>
      </trkpt>
      <trkpt lat="47.2641" lon="3.67512">
        <ele>212</ele>
        <time>2022-06-03T21:58:40Z</time>
      </trkpt>
      <trkpt lat="47.26429" lon="3.67495">
        <ele>215</ele>
        <time>2022-06-03T21:58:44Z</time>
      </trkpt>
      <trkpt lat="47.26668" lon="3.67316">
        <ele>222</ele>
        <time>2022-06-03T21:59:31Z</time>
      </trkpt>
      <trkpt lat="47.26691" lon="3.67296">
        <ele>222</ele>
        <time>2022-06-03T21:59:36Z</time>
      </trkpt>
      <trkpt lat="47.27047" lon="3.66941">
        <ele>209</ele>
        <time>2022-06-03T22:00:53Z</time>
      </trkpt>
      <trkpt lat="47.27083" lon="3.6689">
        <ele>210</ele>
        <time>2022-06-03T22:01:02Z</time>
      </trkpt>
      <trkpt lat="47.27143" lon="3.66764">
        <ele>214</ele>
        <time>2022-06-03T22:01:20Z</time>
      </trkpt>
      <trkpt lat="47.27184" lon="3.66696">
        <ele>215</ele>
        <time>2022-06-03T22:01:31Z</time>
      </trkpt>
      <trkpt lat="47.27214" lon="3.66665">
        <ele>216</ele>
        <time>2022-06-03T22:01:38Z</time>
      </trkpt>
      <trkpt lat="47.27255" lon="3.66642">
        <ele>219</ele>
        <time>2022-06-03T22:01:46Z</time>
      </trkpt>
      <trkpt lat="47.27285" lon="3.66632">
        <ele>220</ele>
        <time>2022-06-03T22:01:51Z</time>
      </trkpt>
      <trkpt lat="47.27316" lon="3.66629">
        <ele>221</ele>
        <time>2022-06-03T22:01:57Z</time>
      </trkpt>
      <trkpt lat="47.27486" lon="3.6666">
        <ele>218</ele>
        <time>2022-06-03T22:02:27Z</time>
      </trkpt>
      <trkpt lat="47.27564" lon="3.66531">
        <ele>214</ele>
        <time>2022-06-03T22:02:48Z</time>
      </trkpt>
      <trkpt lat="47.27587" lon="3.66504">
        <ele>212</ele>
        <time>2022-06-03T22:02:53Z</time>
      </trkpt>
      <trkpt lat="47.27601" lon="3.66493">
        <ele>211</ele>
        <time>2022-06-03T22:02:56Z</time>
      </trkpt>
      <trkpt lat="47.27608" lon="3.6649">
        <ele>211</ele>
        <time>2022-06-03T22:02:57Z</time>
      </trkpt>
      <trkpt lat="47.27691" lon="3.66464">
        <ele>209</ele>
        <time>2022-06-03T22:03:12Z</time>
      </trkpt>
      <trkpt lat="47.27702" lon="3.66457">
        <ele>209</ele>
        <time>2022-06-03T22:03:14Z</time>
      </trkpt>
      <trkpt lat="47.27708" lon="3.66451">
        <ele>209</ele>
        <time>2022-06-03T22:03:16Z</time>
      </trkpt>
      <trkpt lat="47.27754" lon="3.66383">
        <ele>205</ele>
        <time>2022-06-03T22:03:27Z</time>
      </trkpt>
      <trkpt lat="47.27775" lon="3.66339">
        <ele>203</ele>
        <time>2022-06-03T22:03:34Z</time>
      </trkpt>
      <trkpt lat="47.27786" lon="3.66306">
        <ele>202</ele>
        <time>2022-06-03T22:03:38Z</time>
      </trkpt>
      <trkpt lat="47.27786" lon="3.6621">
        <ele>196</ele>
        <time>2022-06-03T22:03:50Z</time>
      </trkpt>
      <trkpt lat="47.27782" lon="3.66178">
        <ele>194</ele>
        <time>2022-06-03T22:03:54Z</time>
      </trkpt>
      <trkpt lat="47.27775" lon="3.66142">
        <ele>192</ele>
        <time>2022-06-03T22:03:58Z</time>
      </trkpt>
      <trkpt lat="47.27749" lon="3.66065">
        <ele>185</ele>
        <time>2022-06-03T22:04:09Z</time>
      </trkpt>
      <trkpt lat="47.27734" lon="3.66029">
        <ele>184</ele>
        <time>2022-06-03T22:04:14Z</time>
      </trkpt>
      <trkpt lat="47.27715" lon="3.6575">
        <ele>180</ele>
        <time>2022-06-03T22:04:48Z</time>
      </trkpt>
      <trkpt lat="47.27723" lon="3.65718">
        <ele>181</ele>
        <time>2022-06-03T22:04:52Z</time>
      </trkpt>
      <trkpt lat="47.27739" lon="3.65695">
        <ele>181</ele>
        <time>2022-06-03T22:04:56Z</time>
      </trkpt>
      <trkpt lat="47.27763" lon="3.6567">
        <ele>182</ele>
        <time>2022-06-03T22:05:01Z</time>
      </trkpt>
      <trkpt lat="47.278" lon="3.65629">
        <ele>182</ele>
        <time>2022-06-03T22:05:09Z</time>
      </trkpt>
      <trkpt lat="47.27805" lon="3.65623">
        <ele>182</ele>
        <time>2022-06-03T22:05:10Z</time>
      </trkpt>
      <trkpt lat="47.27823" lon="3.65659">
        <ele>181</ele>
        <time>2022-06-03T22:05:16Z</time>
      </trkpt>
      <trkpt lat="47.27838" lon="3.65679">
        <ele>181</ele>
        <time>2022-06-03T22:05:19Z</time>
      </trkpt>
      <trkpt lat="47.27853" lon="3.65696">
        <ele>181</ele>
        <time>2022-06-03T22:05:23Z</time>
      </trkpt>
      <trkpt lat="47.27872" lon="3.65707">
        <ele>181</ele>
        <time>2022-06-03T22:05:26Z</time>
      </trkpt>
      <trkpt lat="47.27901" lon="3.65719">
        <ele>182</ele>
        <time>2022-06-03T22:05:32Z</time>
      </trkpt>
      <trkpt lat="47.27947" lon="3.65726">
        <ele>181</ele>
        <time>2022-06-03T22:05:40Z</time>
      </trkpt>
      <trkpt lat="47.28003" lon="3.65727">
        <ele>179</ele>
        <time>2022-06-03T22:05:50Z</time>
      </trkpt>
      <trkpt lat="47.28058" lon="3.65722">
        <ele>180</ele>
        <time>2022-06-03T22:06:00Z</time>
      </trkpt>
      <trkpt lat="47.2846" lon="3.65645">
        <ele>180</ele>
        <time>2022-06-03T22:07:12Z</time>
      </trkpt>
      <trkpt lat="47.28498" lon="3.65643">
        <ele>180</ele>
        <time>2022-06-03T22:07:19Z</time>
      </trkpt>
      <trkpt lat="47.28529" lon="3.65648">
        <ele>179</ele>
        <time>2022-06-03T22:07:24Z</time>
      </trkpt>
      <trkpt lat="47.28604" lon="3.65679">
        <ele>179</ele>
        <time>2022-06-03T22:07:38Z</time>
      </trkpt>
      <trkpt lat="47.28635" lon="3.65695">
        <ele>179</ele>
        <time>2022-06-03T22:07:44Z</time>
      </trkpt>
      <trkpt lat="47.28717" lon="3.65755">
        <ele>180</ele>
        <time>2022-06-03T22:08:00Z</time>
      </trkpt>
      <trkpt lat="47.28868" lon="3.65832">
        <ele>182</ele>
        <time>2022-06-03T22:08:29Z</time>
      </trkpt>
      <trkpt lat="47.28892" lon="3.65841">
        <ele>182</ele>
        <time>2022-06-03T22:08:33Z</time>
      </trkpt>
      <trkpt lat="47.28919" lon="3.65847">
        <ele>181</ele>
        <time>2022-06-03T22:08:38Z</time>
      </trkpt>
      <trkpt lat="47.28951" lon="3.65849">
        <ele>181</ele>
        <time>2022-06-03T22:08:43Z</time>
      </trkpt>
      <trkpt lat="47.28971" lon="3.65853">
        <ele>180</ele>
        <time>2022-06-03T22:08:47Z</time>
      </trkpt>
      <trkpt lat="47.28981" lon="3.65861">
        <ele>180</ele>
        <time>2022-06-03T22:08:49Z</time>
      </trkpt>
      <trkpt lat="47.29" lon="3.65884">
        <ele>179</ele>
        <time>2022-06-03T22:08:53Z</time>
      </trkpt>
      <trkpt lat="47.29052" lon="3.65984">
        <ele>179</ele>
        <time>2022-06-03T22:09:09Z</time>
      </trkpt>
      <trkpt lat="47.29079" lon="3.66033">
        <ele>178</ele>
        <time>2022-06-03T22:09:16Z</time>
      </trkpt>
      <trkpt lat="47.29091" lon="3.66043">
        <ele>179</ele>
        <time>2022-06-03T22:09:19Z</time>
      </trkpt>
      <trkpt lat="47.29103" lon="3.66084">
        <ele>179</ele>
        <time>2022-06-03T22:09:24Z</time>
      </trkpt>
      <trkpt lat="47.29175" lon="3.66227">
        <ele>179</ele>
        <time>2022-06-03T22:09:46Z</time>
      </trkpt>
      <trkpt lat="47.2923" lon="3.6633">
        <ele>180</ele>
        <time>2022-06-03T22:10:01Z</time>
      </trkpt>
      <trkpt lat="47.29272" lon="3.66401">
        <ele>181</ele>
        <time>2022-06-03T22:10:13Z</time>
      </trkpt>
      <trkpt lat="47.29305" lon="3.66442">
        <ele>180</ele>
        <time>2022-06-03T22:10:21Z</time>
      </trkpt>
      <trkpt lat="47.29335" lon="3.66469">
        <ele>179</ele>
        <time>2022-06-03T22:10:27Z</time>
      </trkpt>
      <trkpt lat="47.29373" lon="3.66496">
        <ele>179</ele>
        <time>2022-06-03T22:10:34Z</time>
      </trkpt>
      <trkpt lat="47.29414" lon="3.66515">
        <ele>178</ele>
        <time>2022-06-03T22:10:42Z</time>
      </trkpt>
      <trkpt lat="47.29435" lon="3.66521">
        <ele>178</ele>
        <time>2022-06-03T22:10:46Z</time>
      </trkpt>
      <trkpt lat="47.29629" lon="3.66544">
        <ele>178</ele>
        <time>2022-06-03T22:11:20Z</time>
      </trkpt>
      <trkpt lat="47.29853" lon="3.66566">
        <ele>181</ele>
        <time>2022-06-03T22:12:00Z</time>
      </trkpt>
      <trkpt lat="47.29953" lon="3.66571">
        <ele>179</ele>
        <time>2022-06-03T22:12:18Z</time>
      </trkpt>
      <trkpt lat="47.3042" lon="3.66567">
        <ele>177</ele>
        <time>2022-06-03T22:13:41Z</time>
      </trkpt>
      <trkpt lat="47.3047" lon="3.66563">
        <ele>177</ele>
        <time>2022-06-03T22:13:50Z</time>
      </trkpt>
      <trkpt lat="47.30528" lon="3.66547">
        <ele>177</ele>
        <time>2022-06-03T22:14:01Z</time>
      </trkpt>
      <trkpt lat="47.3058" lon="3.66523">
        <ele>177</ele>
        <time>2022-06-03T22:14:10Z</time>
      </trkpt>
      <trkpt lat="47.30639" lon="3.66482">
        <ele>177</ele>
        <time>2022-06-03T22:14:22Z</time>
      </trkpt>
      <trkpt lat="47.30682" lon="3.66446">
        <ele>177</ele>
        <time>2022-06-03T22:14:31Z</time>
      </trkpt>
      <trkpt lat="47.30711" lon="3.66416">
        <ele>177</ele>
        <time>2022-06-03T22:14:37Z</time>
      </trkpt>
      <trkpt lat="47.30934" lon="3.66149">
        <ele>175</ele>
        <time>2022-06-03T22:15:28Z</time>
      </trkpt>
      <trkpt lat="47.30974" lon="3.66103">
        <ele>176</ele>
        <time>2022-06-03T22:15:37Z</time>
      </trkpt>
      <trkpt lat="47.30998" lon="3.66074">
        <ele>176</ele>
        <time>2022-06-03T22:15:43Z</time>
      </trkpt>
      <trkpt lat="47.31021" lon="3.6605">
        <ele>175</ele>
        <time>2022-06-03T22:15:48Z</time>
      </trkpt>
      <trkpt lat="47.31023" lon="3.66045">
        <ele>175</ele>
        <time>2022-06-03T22:15:48Z</time>
      </trkpt>
      <trkpt lat="47.31022" lon="3.66038">
        <ele>175</ele>
        <time>2022-06-03T22:15:49Z</time>
      </trkpt>
      <trkpt lat="47.31016" lon="3.66027">
        <ele>175</ele>
        <time>2022-06-03T22:15:51Z</time>
      </trkpt>
      <trkpt lat="47.31012" lon="3.6602">
        <ele>175</ele>
        <time>2022-06-03T22:15:52Z</time>
      </trkpt>
      <trkpt lat="47.31098" lon="3.65917">
        <ele>176</ele>
        <time>2022-06-03T22:16:12Z</time>
      </trkpt>
      <trkpt lat="47.31196" lon="3.65797">
        <ele>175</ele>
        <time>2022-06-03T22:16:34Z</time>
      </trkpt>
      <trkpt lat="47.31232" lon="3.65758">
        <ele>174</ele>
        <time>2022-06-03T22:16:42Z</time>
      </trkpt>
      <trkpt lat="47.31297" lon="3.65705">
        <ele>174</ele>
        <time>2022-06-03T22:16:56Z</time>
      </trkpt>
      <trkpt lat="47.31323" lon="3.65689">
        <ele>174</ele>
        <time>2022-06-03T22:17:01Z</time>
      </trkpt>
      <trkpt lat="47.31371" lon="3.65665">
        <ele>174</ele>
        <time>2022-06-03T22:17:10Z</time>
      </trkpt>
      <trkpt lat="47.31443" lon="3.65637">
        <ele>175</ele>
        <time>2022-06-03T22:17:23Z</time>
      </trkpt>
      <trkpt lat="47.31455" lon="3.65629">
        <ele>175</ele>
        <time>2022-06-03T22:17:25Z</time>
      </trkpt>
      <trkpt lat="47.31569" lon="3.65571">
        <ele>173</ele>
        <time>2022-06-03T22:17:47Z</time>
      </trkpt>
      <trkpt lat="47.31662" lon="3.6554">
        <ele>173</ele>
        <time>2022-06-03T22:18:04Z</time>
      </trkpt>
      <trkpt lat="47.31675" lon="3.65539">
        <ele>173</ele>
        <time>2022-06-03T22:18:06Z</time>
      </trkpt>
      <trkpt lat="47.31753" lon="3.65555">
        <ele>173</ele>
        <time>2022-06-03T22:18:20Z</time>
      </trkpt>
      <trkpt lat="47.31786" lon="3.65569">
        <ele>173</ele>
        <time>2022-06-03T22:18:26Z</time>
      </trkpt>
      <trkpt lat="47.31894" lon="3.65608">
        <ele>175</ele>
        <time>2022-06-03T22:18:46Z</time>
      </trkpt>
      <trkpt lat="47.31973" lon="3.65633">
        <ele>174</ele>
        <time>2022-06-03T22:19:00Z</time>
      </trkpt>
      <trkpt lat="47.31981" lon="3.6563">
        <ele>174</ele>
        <time>2022-06-03T22:19:02Z</time>
      </trkpt>
      <trkpt lat="47.31984" lon="3.65605">
        <ele>175</ele>
        <time>2022-06-03T22:19:05Z</time>
      </trkpt>
      <trkpt lat="47.31945" lon="3.6559">
        <ele>176</ele>
        <time>2022-06-03T22:19:12Z</time>
      </trkpt>
    </trkseg>
  </trk>
</gpx>